Terminal Aerodrome Forecast
Issued by NWS

Home | Current Version | Previous Version | Text Only | Print | Product List | Glossary On
Versions: 1 2 3 4 5 6 7 8 9 10 11 12 13 14 15 16 17 18
000
FTUS43 KDVN 282251 AAC
TAFCID
TAF AMD
KCID 282251Z 2823/2918 14013G22KT 6SM -SHRA BKN060
      TEMPO 2823/2901 2SM TSRA OVC040CB
     FM290100 14009KT 5SM -RA BR OVC035
     FM290800 17005KT 3SM -RA BR OVC025
     FM291200 VRB03KT 2SM BR SCT007 OVC015
     FM291600 28007KT 6SM BR BKN025=

USA.gov is the U.S. government's official web portal to all federal, state and local government web resources and services.